Terminal Aerodrome Forecast
Issued by NWS

Home | Current Version | Previous Version | Text Only | Print | Product List | Glossary On
Versions: 1 2 3 4 5 6 7 8 9 10 11 12
000
FTUS46 KSTO 041132
TAFSAC
TAF
KSAC 041132Z 0412/0512 19009KT P6SM FEW250
     FM041700 21011KT P6SM SCT150 BKN250
     FM042000 22012G17KT P6SM VCSH SCT120 BKN250
     FM050600 20008KT P6SM SCT250=

USA.gov is the U.S. government's official web portal to all federal, state and local government web resources and services.